createdAt,value
2022-08-24T00:00:37.358Z,99.90
2022-08-24T00:03:04.226Z,99.90
2022-08-24T00:05:31.198Z,99.90
2022-08-24T00:07:58.137Z,99.90
2022-08-24T00:10:26.571Z,99.90
2022-08-24T00:12:53.375Z,99.90
2022-08-24T00:15:20.604Z,99.90
2022-08-24T00:17:47.491Z,99.90
2022-08-24T00:20:14.635Z,99.90
2022-08-24T00:22:42.348Z,99.90
2022-08-24T00:25:11.473Z,99.90
2022-08-24T00:27:39.940Z,99.90
2022-08-24T00:30:10.641Z,99.90
2022-08-24T00:32:40.405Z,99.90
2022-08-24T00:35:08.713Z,99.90
2022-08-24T00:37:37.093Z,99.90
2022-08-24T00:40:12.316Z,99.90
2022-08-24T00:42:40.710Z,99.90
2022-08-24T00:45:10.731Z,99.90
2022-08-24T00:47:55.162Z,99.90
2022-08-24T00:50:52.543Z,99.90
2022-08-24T00:53:34.679Z,99.90
2022-08-24T00:56:06.765Z,99.90
2022-08-24T00:58:41.760Z,99.90
2022-08-24T01:01:11.387Z,99.90
2022-08-24T01:03:38.634Z,99.90
2022-08-24T01:06:06.076Z,99.90
2022-08-24T01:08:33.694Z,99.90
2022-08-24T01:11:09.053Z,99.90
2022-08-24T01:13:43.649Z,99.90
2022-08-24T01:16:12.259Z,99.90
2022-08-24T01:18:51.659Z,99.90
2022-08-24T01:21:31.675Z,99.90
2022-08-24T01:24:02.746Z,99.90
2022-08-24T01:26:48.927Z,99.90
2022-08-24T01:29:23.728Z,99.90
2022-08-24T01:31:51.293Z,99.90
2022-08-24T01:34:18.245Z,99.90
2022-08-24T01:36:51.811Z,99.90
2022-08-24T01:39:21.638Z,99.90
2022-08-24T01:41:49.416Z,99.90
2022-08-24T01:44:17.671Z,99.90
2022-08-24T01:46:45.995Z,99.90
2022-08-24T01:49:13.484Z,99.90
2022-08-24T01:51:40.425Z,99.90
2022-08-24T01:54:07.882Z,99.90
2022-08-24T01:56:35.594Z,99.90
2022-08-24T01:59:05.836Z,99.90
2022-08-24T02:01:40.270Z,99.90
2022-08-24T02:04:09.518Z,99.90
2022-08-24T02:06:37.699Z,99.90
2022-08-24T02:09:07.479Z,99.90
2022-08-24T02:11:34.408Z,99.90
2022-08-24T02:14:01.538Z,99.90
2022-08-24T02:16:29.308Z,99.90
2022-08-24T02:18:57.627Z,99.90
2022-08-24T02:21:25.628Z,99.90
2022-08-24T02:23:52.823Z,99.90
2022-08-24T02:26:19.787Z,99.90
2022-08-24T02:28:46.834Z,99.90
2022-08-24T02:31:14.575Z,99.90
2022-08-24T02:33:43.221Z,99.90
2022-08-24T02:36:25.376Z,99.90
2022-08-24T02:38:55.881Z,99.90
2022-08-24T02:41:25.624Z,99.90
2022-08-24T02:43:54.729Z,99.90
2022-08-24T02:46:24.015Z,99.90
2022-08-24T02:48:53.020Z,99.90
2022-08-24T02:51:44.068Z,99.90
2022-08-24T02:54:17.996Z,99.90
2022-08-24T02:56:48.680Z,99.90
2022-08-24T02:59:17.711Z,99.90
2022-08-24T03:01:45.760Z,99.90
2022-08-24T03:04:14.771Z,99.90
2022-08-24T03:06:42.435Z,99.90
2022-08-24T03:09:09.466Z,99.90
2022-08-24T03:11:36.500Z,99.90
2022-08-24T03:14:03.471Z,99.90
2022-08-24T03:16:31.609Z,99.90
2022-08-24T03:19:00.437Z,99.90
2022-08-24T03:21:29.647Z,99.90
2022-08-24T03:23:57.015Z,99.90
2022-08-24T03:26:24.196Z,99.90
2022-08-24T03:28:51.996Z,99.90
2022-08-24T03:31:20.785Z,99.90
2022-08-24T03:33:49.389Z,99.90
2022-08-24T03:36:16.873Z,99.90
2022-08-24T03:38:44.776Z,99.90
2022-08-24T03:41:11.830Z,99.90
2022-08-24T03:43:51.623Z,99.90
2022-08-24T03:46:27.277Z,99.90
2022-08-24T03:48:55.232Z,99.90
2022-08-24T03:51:26.683Z,99.90
2022-08-24T03:53:56.268Z,99.90
2022-08-24T03:56:26.651Z,99.90
2022-08-24T03:58:54.441Z,99.90
2022-08-24T04:01:23.263Z,99.90
2022-08-24T04:03:51.086Z,99.90
2022-08-24T04:06:20.007Z,99.90
2022-08-24T04:08:47.637Z,99.90
2022-08-24T04:11:18.036Z,99.90
2022-08-24T04:13:46.768Z,99.90
2022-08-24T04:16:17.171Z,99.90
2022-08-24T04:18:45.110Z,99.90
2022-08-24T04:21:21.686Z,99.90
2022-08-24T04:23:50.351Z,99.90
2022-08-24T04:26:34.138Z,99.90
2022-08-24T04:29:10.580Z,99.90
2022-08-24T04:31:43.294Z,99.90
2022-08-24T04:34:13.067Z,99.90
2022-08-24T04:36:41.489Z,99.90
2022-08-24T04:39:08.516Z,99.90
2022-08-24T04:42:03.732Z,99.90
2022-08-24T04:44:35.353Z,99.90
2022-08-24T04:47:02.258Z,99.90
2022-08-24T04:49:30.551Z,99.90
2022-08-24T04:51:58.033Z,99.90
2022-08-24T04:54:25.243Z,99.90
2022-08-24T04:57:04.811Z,99.90
2022-08-24T04:59:31.766Z,99.90
2022-08-24T05:01:58.860Z,99.90
2022-08-24T05:04:25.736Z,99.90
2022-08-24T05:06:53.087Z,99.90
2022-08-24T05:09:24.470Z,99.90
2022-08-24T05:11:52.634Z,99.90
2022-08-24T05:14:27.952Z,99.90
2022-08-24T05:16:56.263Z,99.90
2022-08-24T05:19:23.665Z,99.90
2022-08-24T05:21:51.358Z,99.90
2022-08-24T05:24:19.682Z,99.90
2022-08-24T05:26:47.188Z,99.90
2022-08-24T05:29:15.303Z,99.90
2022-08-24T05:31:48.383Z,99.90
2022-08-24T05:34:16.529Z,99.90
2022-08-24T05:36:44.001Z,99.90
2022-08-24T05:39:35.118Z,99.90
2022-08-24T05:42:07.111Z,99.90
2022-08-24T05:44:37.508Z,99.90
2022-08-24T05:47:04.687Z,99.90
2022-08-24T05:49:31.919Z,99.90
2022-08-24T05:51:59.904Z,99.90
2022-08-24T05:54:27.072Z,99.90
2022-08-24T05:57:07.118Z,99.90
2022-08-24T05:59:40.977Z,99.90
2022-08-24T06:02:14.538Z,99.90
2022-08-24T06:04:41.770Z,99.90
2022-08-24T06:07:11.545Z,99.90
2022-08-24T06:09:43.183Z,99.90
2022-08-24T06:12:14.633Z,99.90
2022-08-24T06:14:47.524Z,99.90
2022-08-24T06:17:16.801Z,99.90
2022-08-24T06:19:43.947Z,99.90
2022-08-24T06:22:10.884Z,99.90
2022-08-24T06:24:58.955Z,99.90
2022-08-24T06:27:27.002Z,99.90
2022-08-24T06:30:04.279Z,99.90
2022-08-24T06:33:02.663Z,99.90
2022-08-24T06:35:47.004Z,99.90
2022-08-24T06:38:14.640Z,99.90
2022-08-24T06:40:42.955Z,99.90
2022-08-24T06:43:11.137Z,99.90
2022-08-24T06:45:51.948Z,99.90
2022-08-24T06:48:23.083Z,99.90
2022-08-24T06:50:50.959Z,99.90
2022-08-24T06:53:17.891Z,99.90
2022-08-24T06:55:57.446Z,99.90
2022-08-24T06:58:27.573Z,99.90
2022-08-24T07:00:57.125Z,99.90
2022-08-24T07:03:25.429Z,99.40
2022-08-24T07:06:04.371Z,99.90
2022-08-24T07:08:37.223Z,98.70
2022-08-24T07:11:05.756Z,98.40
2022-08-24T07:13:34.336Z,98.30
2022-08-24T07:16:02.355Z,99.20
2022-08-24T07:18:32.763Z,97.00
2022-08-24T07:21:04.411Z,95.90
2022-08-24T07:23:55.973Z,97.80
2022-08-24T07:26:25.590Z,99.20
2022-08-24T07:29:04.913Z,97.00
2022-08-24T07:31:39.701Z,95.90
2022-08-24T07:34:33.845Z,95.00
2022-08-24T07:37:01.275Z,95.60
2022-08-24T07:39:30.347Z,95.60
2022-08-24T07:42:12.255Z,93.40
2022-08-24T07:44:41.892Z,95.30
2022-08-24T07:47:34.504Z,93.60
2022-08-24T07:49:56.602Z,94.30
2022-08-24T07:52:23.547Z,93.80
2022-08-24T07:54:50.449Z,93.40
2022-08-24T07:57:18.061Z,92.80
2022-08-24T07:59:47.017Z,93.40
2022-08-24T08:02:14.805Z,93.50
2022-08-24T08:04:47.756Z,93.90
2022-08-24T08:07:14.780Z,92.80
2022-08-24T08:09:41.939Z,94.00
2022-08-24T08:12:10.768Z,92.90
2022-08-24T08:14:46.780Z,92.40
2022-08-24T08:17:14.994Z,91.40
2022-08-24T08:19:43.202Z,91.40
2022-08-24T08:22:29.722Z,91.90
2022-08-24T08:25:15.048Z,91.60
2022-08-24T08:27:45.608Z,91.60
2022-08-24T08:30:12.919Z,91.60
2022-08-24T08:32:42.281Z,90.50
2022-08-24T08:35:10.156Z,90.80
2022-08-24T08:37:37.495Z,91.30
2022-08-24T08:40:07.691Z,90.60
2022-08-24T08:43:06.253Z,91.40
2022-08-24T08:45:42.287Z,91.30
2022-08-24T08:49:01.001Z,91.10
2022-08-24T08:52:16.080Z,91.50
2022-08-24T08:54:43.693Z,91.80
2022-08-24T08:57:45.462Z,91.40
2022-08-24T09:00:24.364Z,91.40
2022-08-24T09:03:18.017Z,91.50
2022-08-24T09:06:33.902Z,92.00
2022-08-24T09:09:18.241Z,91.50
2022-08-24T09:12:03.242Z,92.50
2022-08-24T09:14:52.463Z,91.10
2022-08-24T09:17:29.917Z,90.40
2022-08-24T09:20:15.694Z,89.70
2022-08-24T09:22:48.063Z,86.00
2022-08-24T09:25:34.016Z,85.80
2022-08-24T09:28:32.930Z,85.30
2022-08-24T09:31:18.599Z,84.70
2022-08-24T09:34:14.127Z,83.50
2022-08-24T09:37:09.740Z,82.10
2022-08-24T09:39:45.235Z,83.60
2022-08-24T09:42:50.144Z,85.20
2022-08-24T09:45:32.911Z,86.40
2022-08-24T09:48:05.495Z,84.90
2022-08-24T09:50:51.760Z,82.20
2022-08-24T09:53:44.678Z,84.10
2022-08-24T09:56:14.844Z,84.80
2022-08-24T09:58:57.785Z,85.60
2022-08-24T10:01:39.281Z,85.10
2022-08-24T10:04:25.306Z,83.90
2022-08-24T10:07:11.128Z,84.90
2022-08-24T10:09:58.640Z,84.60
2022-08-24T10:13:03.462Z,82.60
2022-08-24T10:15:41.151Z,85.30
2022-08-24T10:18:38.514Z,85.70
2022-08-24T10:21:13.658Z,85.10
2022-08-24T10:24:06.847Z,82.70
2022-08-24T10:27:01.652Z,82.30
2022-08-24T10:29:35.740Z,82.90
2022-08-24T10:32:14.726Z,86.10
2022-08-24T10:35:22.074Z,84.20
2022-08-24T10:38:37.551Z,81.40
2022-08-24T10:41:30.890Z,83.60
2022-08-24T10:44:00.541Z,85.80
2022-08-24T10:46:36.377Z,86.40
2022-08-24T10:49:27.343Z,83.50
2022-08-24T10:52:08.554Z,83.10
2022-08-24T10:54:37.084Z,80.20
2022-08-24T10:57:17.271Z,80.20
2022-08-24T11:00:02.741Z,82.70
2022-08-24T11:02:34.816Z,81.50
2022-08-24T11:05:05.844Z,81.50
2022-08-24T11:07:33.365Z,79.00
2022-08-24T11:10:02.813Z,78.70
2022-08-24T11:12:42.681Z,77.40
2022-08-24T11:15:18.410Z,77.40
2022-08-24T11:17:56.668Z,78.70
2022-08-24T11:20:28.381Z,79.90
2022-08-24T11:23:16.481Z,77.30
2022-08-24T11:26:02.111Z,77.10
2022-08-24T11:28:47.287Z,76.10
2022-08-24T11:31:27.159Z,78.20
2022-08-24T11:34:18.665Z,80.00
2022-08-24T11:36:45.896Z,78.30
2022-08-24T11:39:23.463Z,77.80
2022-08-24T11:42:39.480Z,75.00
2022-08-24T11:45:08.970Z,74.60
2022-08-24T11:47:57.744Z,74.10
2022-08-24T11:50:30.146Z,74.20
2022-08-24T11:53:13.748Z,73.30
2022-08-24T11:55:46.948Z,71.80
2022-08-24T11:58:25.836Z,73.00
2022-08-24T12:01:19.464Z,75.20
2022-08-24T12:03:52.501Z,76.70
2022-08-24T12:06:44.994Z,77.80
2022-08-24T12:09:39.990Z,75.30
2022-08-24T12:12:21.459Z,76.00
2022-08-24T12:15:00.525Z,75.30
2022-08-24T12:18:05.460Z,73.90
2022-08-24T12:20:38.505Z,75.30
2022-08-24T12:23:28.627Z,71.80
2022-08-24T12:26:33.616Z,74.80
2022-08-24T12:29:08.281Z,76.90
2022-08-24T12:31:39.417Z,75.90
2022-08-24T12:34:16.526Z,77.50
2022-08-24T12:37:16.475Z,77.60
2022-08-24T12:40:04.944Z,77.90
2022-08-24T12:42:54.716Z,77.70
2022-08-24T12:45:23.780Z,78.30
2022-08-24T12:48:20.048Z,80.20
2022-08-24T12:50:52.642Z,80.10
2022-08-24T12:53:31.535Z,81.10
2022-08-24T12:56:20.642Z,77.30
2022-08-24T12:59:01.388Z,78.60
2022-08-24T13:01:36.057Z,78.40
2022-08-24T13:04:07.473Z,78.20
2022-08-24T13:06:59.838Z,79.30
2022-08-24T13:09:34.576Z,77.20
2022-08-24T13:12:41.970Z,77.40
2022-08-24T13:15:31.193Z,77.50
2022-08-24T13:18:07.345Z,76.20
2022-08-24T13:20:37.214Z,76.80
2022-08-24T13:23:13.213Z,77.30
2022-08-24T13:25:58.886Z,75.90
2022-08-24T13:28:25.673Z,76.90
2022-08-24T13:31:05.719Z,79.20
2022-08-24T13:33:44.788Z,78.00
2022-08-24T13:36:41.837Z,77.00
2022-08-24T13:39:46.335Z,78.00
2022-08-24T13:42:25.114Z,76.70
2022-08-24T13:45:16.272Z,77.60
2022-08-24T13:48:11.166Z,76.90
2022-08-24T13:50:59.383Z,78.80
2022-08-24T13:53:46.644Z,79.20
2022-08-24T13:56:22.621Z,78.10
2022-08-24T13:59:22.565Z,77.40
2022-08-24T14:02:00.379Z,76.50
2022-08-24T14:04:33.553Z,77.90
2022-08-24T14:07:26.589Z,77.10
2022-08-24T14:10:34.293Z,77.90
2022-08-24T14:13:25.848Z,78.60
2022-08-24T14:16:17.910Z,79.90
2022-08-24T14:18:50.483Z,80.40
2022-08-24T14:21:22.315Z,79.00
2022-08-24T14:24:17.817Z,78.80
2022-08-24T14:26:44.775Z,78.50
2022-08-24T14:29:20.294Z,77.70
2022-08-24T14:32:01.469Z,77.60
2022-08-24T14:34:48.778Z,78.70
2022-08-24T14:37:18.476Z,76.90
2022-08-24T14:40:03.678Z,78.10
2022-08-24T14:42:39.658Z,78.00
2022-08-24T14:45:10.468Z,77.90
2022-08-24T14:48:02.627Z,77.20
2022-08-24T14:50:39.478Z,75.50
2022-08-24T14:53:15.201Z,76.80
2022-08-24T14:55:56.991Z,79.10
2022-08-24T14:58:58.907Z,79.80
2022-08-24T15:01:41.088Z,78.80
2022-08-24T15:04:45.520Z,81.70
2022-08-24T15:07:29.932Z,80.30
2022-08-24T15:09:58.924Z,80.80
2022-08-24T15:13:03.351Z,81.00
2022-08-24T15:15:39.553Z,81.50
2022-08-24T15:18:21.854Z,81.30
2022-08-24T15:21:12.649Z,81.40
2022-08-24T15:24:10.040Z,80.80
2022-08-24T15:26:55.911Z,81.90
2022-08-24T15:29:30.395Z,82.50
2022-08-24T15:32:01.857Z,83.70
2022-08-24T15:34:45.572Z,84.30
2022-08-24T15:37:45.282Z,84.60
2022-08-24T15:40:31.539Z,84.50
2022-08-24T15:43:04.438Z,85.70
2022-08-24T15:45:33.510Z,85.80
2022-08-24T15:48:01.959Z,86.20
2022-08-24T15:50:33.394Z,86.00
2022-08-24T15:53:29.684Z,86.40
2022-08-24T15:55:56.934Z,87.60
2022-08-24T15:58:32.238Z,89.20
2022-08-24T16:01:39.533Z,89.60
2022-08-24T16:04:13.799Z,90.20
2022-08-24T16:06:47.585Z,90.70
2022-08-24T16:09:27.772Z,91.40
2022-08-24T16:11:57.281Z,91.70
2022-08-24T16:14:32.515Z,91.70
2022-08-24T16:17:01.908Z,92.20
2022-08-24T16:19:34.398Z,92.80
2022-08-24T16:22:10.578Z,92.90
2022-08-24T16:24:42.067Z,93.20
2022-08-24T16:27:12.866Z,93.60
2022-08-24T16:29:40.327Z,93.60
2022-08-24T16:32:31.921Z,94.10
2022-08-24T16:35:10.923Z,94.40
2022-08-24T16:37:39.305Z,94.50
2022-08-24T16:40:08.524Z,94.90
2022-08-24T16:42:36.487Z,95.50
2022-08-24T16:45:08.050Z,95.70
2022-08-24T16:47:34.914Z,96.10
2022-08-24T16:50:02.996Z,96.50
2022-08-24T16:52:29.912Z,96.40
2022-08-24T16:54:57.738Z,96.80
2022-08-24T16:57:29.523Z,96.90
2022-08-24T16:59:56.639Z,97.10
2022-08-24T17:02:25.841Z,97.40
2022-08-24T17:04:54.628Z,97.70
2022-08-24T17:07:28.096Z,97.90
2022-08-24T17:09:56.683Z,98.00
2022-08-24T17:12:24.056Z,98.20
2022-08-24T17:14:50.893Z,98.20
2022-08-24T17:17:22.864Z,98.20
2022-08-24T17:19:52.574Z,98.40
2022-08-24T17:22:23.021Z,98.50
2022-08-24T17:24:50.467Z,98.80
2022-08-24T17:27:19.489Z,99.00
2022-08-24T17:29:46.861Z,99.10
2022-08-24T17:32:14.094Z,99.40
2022-08-24T17:34:41.333Z,99.60
2022-08-24T17:37:09.851Z,99.70
2022-08-24T17:39:36.849Z,99.90
2022-08-24T17:42:03.769Z,99.90
2022-08-24T17:44:33.548Z,99.90
2022-08-24T17:47:03.744Z,99.90
2022-08-24T17:49:31.934Z,99.90
2022-08-24T17:51:59.327Z,99.90
2022-08-24T17:54:28.377Z,99.90
2022-08-24T17:56:55.918Z,99.90
2022-08-24T17:59:30.429Z,99.90
2022-08-24T18:02:03.816Z,99.90
2022-08-24T18:04:33.393Z,99.90
2022-08-24T18:07:03.370Z,99.90
2022-08-24T18:09:47.816Z,99.90
2022-08-24T18:12:21.074Z,99.90
2022-08-24T18:14:48.547Z,99.90
2022-08-24T18:17:22.820Z,99.90
2022-08-24T18:19:51.104Z,99.90
2022-08-24T18:22:17.903Z,99.90
2022-08-24T18:24:44.771Z,99.90
2022-08-24T18:27:19.386Z,99.90
2022-08-24T18:29:47.713Z,99.90
2022-08-24T18:32:21.676Z,99.90
2022-08-24T18:34:48.934Z,99.90
2022-08-24T18:37:15.828Z,99.90
2022-08-24T18:39:42.666Z,99.90
2022-08-24T18:42:11.445Z,99.90
2022-08-24T18:44:39.418Z,99.90
2022-08-24T18:47:07.305Z,99.90
2022-08-24T18:49:35.574Z,99.90
2022-08-24T18:52:03.908Z,99.90
2022-08-24T18:54:36.809Z,99.90
2022-08-24T18:57:06.956Z,99.90
2022-08-24T18:59:35.515Z,99.90
2022-08-24T19:02:31.872Z,99.90
2022-08-24T19:05:34.156Z,99.90
2022-08-24T19:08:00.991Z,99.90
2022-08-24T19:10:30.469Z,99.90
2022-08-24T19:13:06.304Z,99.90
2022-08-24T19:15:40.289Z,99.90
2022-08-24T19:18:10.907Z,99.90
2022-08-24T19:20:45.836Z,99.90
2022-08-24T19:23:18.852Z,99.90
2022-08-24T19:25:46.100Z,99.90
2022-08-24T19:28:13.862Z,99.90
2022-08-24T19:30:42.229Z,99.90
2022-08-24T19:33:13.471Z,99.90
2022-08-24T19:35:41.596Z,99.90
2022-08-24T19:38:09.026Z,99.90
2022-08-24T19:40:37.516Z,99.90
2022-08-24T19:43:06.198Z,99.90
2022-08-24T19:45:54.316Z,99.90
2022-08-24T19:48:23.368Z,99.90
2022-08-24T19:50:52.853Z,99.90
2022-08-24T19:53:19.917Z,99.90
2022-08-24T19:55:50.095Z,99.90
2022-08-24T19:58:30.687Z,99.90
2022-08-24T20:01:03.139Z,99.90
2022-08-24T20:03:30.078Z,99.90
2022-08-24T20:05:57.186Z,99.90
2022-08-24T20:08:24.558Z,99.90
2022-08-24T20:10:53.098Z,99.90
2022-08-24T20:13:19.993Z,99.90
2022-08-24T20:15:47.113Z,99.90
2022-08-24T20:18:14.940Z,99.90
2022-08-24T20:20:41.965Z,99.90
2022-08-24T20:23:09.199Z,99.90
2022-08-24T20:25:37.348Z,99.90
2022-08-24T20:28:28.226Z,99.90
2022-08-24T20:30:53.168Z,99.90
2022-08-24T20:33:23.865Z,99.90
2022-08-24T20:35:51.152Z,99.90
2022-08-24T20:38:20.384Z,99.90
2022-08-24T20:40:48.558Z,99.90
2022-08-24T20:43:15.839Z,99.90
2022-08-24T20:45:43.000Z,99.90
2022-08-24T20:48:12.480Z,99.90
2022-08-24T20:50:43.436Z,99.90
2022-08-24T20:53:11.533Z,99.90
2022-08-24T20:55:40.499Z,99.90
2022-08-24T20:58:09.023Z,99.90
2022-08-24T21:00:36.784Z,99.90
2022-08-24T21:03:04.536Z,99.90
2022-08-24T21:05:31.593Z,99.90
2022-08-24T21:07:59.251Z,99.90
2022-08-24T21:10:27.108Z,99.90
2022-08-24T21:12:54.292Z,99.90
2022-08-24T21:15:22.471Z,99.90
2022-08-24T21:17:50.363Z,99.90
2022-08-24T21:20:18.096Z,99.90
2022-08-24T21:22:46.167Z,99.90
2022-08-24T21:25:14.591Z,99.90
2022-08-24T21:27:44.337Z,99.90
2022-08-24T21:30:15.091Z,99.90
2022-08-24T21:33:00.477Z,99.90
2022-08-24T21:35:27.676Z,99.90
2022-08-24T21:37:55.296Z,99.90
2022-08-24T21:40:23.349Z,99.90
2022-08-24T21:42:50.322Z,99.90
2022-08-24T21:45:19.529Z,99.90
2022-08-24T21:47:46.498Z,99.90
2022-08-24T21:50:14.687Z,99.90
2022-08-24T21:52:41.715Z,99.90
2022-08-24T21:55:14.167Z,99.90
2022-08-24T21:57:41.824Z,99.90
2022-08-24T22:00:15.638Z,99.90
2022-08-24T22:02:42.490Z,99.90
2022-08-24T22:05:10.233Z,99.90
2022-08-24T22:07:37.480Z,99.90
2022-08-24T22:10:07.363Z,99.90
2022-08-24T22:12:38.132Z,99.90
2022-08-24T22:15:07.131Z,99.90
2022-08-24T22:17:34.545Z,99.90
2022-08-24T22:20:01.749Z,99.90
2022-08-24T22:22:28.661Z,99.90
2022-08-24T22:24:55.564Z,99.90
2022-08-24T22:27:23.450Z,99.90
2022-08-24T22:29:52.887Z,99.90
2022-08-24T22:32:19.839Z,99.90
2022-08-24T22:34:46.724Z,99.90
2022-08-24T22:37:13.734Z,99.90
2022-08-24T22:39:41.180Z,99.90
2022-08-24T22:42:08.564Z,99.90
2022-08-24T22:44:35.660Z,99.90
2022-08-24T22:47:10.875Z,99.90
2022-08-24T22:49:43.661Z,99.90
2022-08-24T22:52:16.643Z,99.90
2022-08-24T22:54:43.511Z,99.90
2022-08-24T22:57:10.496Z,99.90
2022-08-24T22:59:42.237Z,99.90
2022-08-24T23:02:15.315Z,99.90
2022-08-24T23:04:45.706Z,99.90
2022-08-24T23:07:12.855Z,99.90
2022-08-24T23:09:44.258Z,99.90
2022-08-24T23:12:15.204Z,99.90
2022-08-24T23:14:42.664Z,99.90
2022-08-24T23:17:09.779Z,99.90
2022-08-24T23:19:56.158Z,99.90
2022-08-24T23:22:23.097Z,99.90
2022-08-24T23:24:50.353Z,99.90
2022-08-24T23:27:18.231Z,99.90
2022-08-24T23:29:46.153Z,99.90
2022-08-24T23:32:17.641Z,99.90
2022-08-24T23:34:46.633Z,99.90
2022-08-24T23:37:15.057Z,99.90
2022-08-24T23:39:42.367Z,99.90
2022-08-24T23:42:09.228Z,99.90
2022-08-24T23:44:36.212Z,99.90
2022-08-24T23:47:04.003Z,99.90
2022-08-24T23:49:31.922Z,99.90
2022-08-24T23:51:59.814Z,99.90
2022-08-24T23:54:27.313Z,99.90
2022-08-24T23:56:55.380Z,99.90
2022-08-24T23:59:27.233Z,99.90
